sensor_id;sensor_type;location;lat;lon;timestamp;pressure;altitude;pressure_sealevel;temperature
68911;BMP180;55953;51.650;-0.522;2022-08-27T00:02:08;100974.60;;;17.00
68911;BMP180;55953;51.650;-0.522;2022-08-27T00:04:37;100971.40;;;17.10
68911;BMP180;55953;51.650;-0.522;2022-08-27T00:07:07;100966.60;;;17.20
68911;BMP180;55953;51.650;-0.522;2022-08-27T00:09:36;100962.60;;;17.20
68911;BMP180;55953;51.650;-0.522;2022-08-27T00:12:05;100963.20;;;17.10
68911;BMP180;55953;51.650;-0.522;2022-08-27T00:14:36;100971.40;;;17.00
68911;BMP180;55953;51.650;-0.522;2022-08-27T00:17:06;100968.60;;;16.94
68911;BMP180;55953;51.650;-0.522;2022-08-27T00:19:34;100964.80;;;16.92
68911;BMP180;55953;51.650;-0.522;2022-08-27T00:22:04;100961.60;;;16.94
68911;BMP180;55953;51.650;-0.522;2022-08-27T00:24:34;100958.80;;;16.90
68911;BMP180;55953;51.650;-0.522;2022-08-27T00:27:15;100963.80;;;17.00
68911;BMP180;55953;51.650;-0.522;2022-08-27T00:29:45;100958.40;;;17.00
68911;BMP180;55953;51.650;-0.522;2022-08-27T00:32:14;100955.60;;;17.00
68911;BMP180;55953;51.650;-0.522;2022-08-27T00:34:42;100956.00;;;17.10
68911;BMP180;55953;51.650;-0.522;2022-08-27T00:37:10;100955.60;;;17.14
68911;BMP180;55953;51.650;-0.522;2022-08-27T00:39:38;100953.00;;;17.20
68911;BMP180;55953;51.650;-0.522;2022-08-27T00:42:06;100948.60;;;17.20
68911;BMP180;55953;51.650;-0.522;2022-08-27T00:44:34;100955.20;;;17.10
68911;BMP180;55953;51.650;-0.522;2022-08-27T00:47:11;100949.80;;;17.10
68911;BMP180;55953;51.650;-0.522;2022-08-27T00:49:55;100949.00;;;17.10
68911;BMP180;55953;51.650;-0.522;2022-08-27T00:52:30;100950.80;;;17.20
68911;BMP180;55953;51.650;-0.522;2022-08-27T00:55:13;100948.20;;;17.20
68911;BMP180;55953;51.650;-0.522;2022-08-27T00:57:44;100950.20;;;17.00
68911;BMP180;55953;51.650;-0.522;2022-08-27T01:00:17;100953.40;;;17.00
68911;BMP180;55953;51.650;-0.522;2022-08-27T01:02:45;100952.00;;;16.90
68911;BMP180;55953;51.650;-0.522;2022-08-27T01:05:21;100950.20;;;16.90
68911;BMP180;55953;51.650;-0.522;2022-08-27T01:07:57;100955.00;;;16.90
68911;BMP180;55953;51.650;-0.522;2022-08-27T01:10:27;100956.40;;;16.92
68911;BMP180;55953;51.650;-0.522;2022-08-27T01:12:57;100952.20;;;16.90
68911;BMP180;55953;51.650;-0.522;2022-08-27T01:15:27;100950.40;;;16.90
68911;BMP180;55953;51.650;-0.522;2022-08-27T01:17:56;100948.00;;;16.80
68911;BMP180;55953;51.650;-0.522;2022-08-27T01:20:31;100951.40;;;16.80
68911;BMP180;55953;51.650;-0.522;2022-08-27T01:23:52;100950.40;;;16.80
68911;BMP180;55953;51.650;-0.522;2022-08-27T01:26:21;100953.80;;;16.70
68911;BMP180;55953;51.650;-0.522;2022-08-27T01:28:51;100956.60;;;16.70
68911;BMP180;55953;51.650;-0.522;2022-08-27T01:31:19;100954.80;;;16.62
68911;BMP180;55953;51.650;-0.522;2022-08-27T01:34:02;100951.60;;;16.50
68911;BMP180;55953;51.650;-0.522;2022-08-27T01:36:30;100951.60;;;16.50
68911;BMP180;55953;51.650;-0.522;2022-08-27T01:38:59;100949.00;;;16.42
68911;BMP180;55953;51.650;-0.522;2022-08-27T01:41:27;100944.00;;;16.40
68911;BMP180;55953;51.650;-0.522;2022-08-27T01:43:55;100944.80;;;16.30
68911;BMP180;55953;51.650;-0.522;2022-08-27T01:46:27;100944.60;;;16.30
68911;BMP180;55953;51.650;-0.522;2022-08-27T01:48:55;100945.40;;;16.30
68911;BMP180;55953;51.650;-0.522;2022-08-27T01:51:22;100942.60;;;16.30
68911;BMP180;55953;51.650;-0.522;2022-08-27T01:53:50;100949.80;;;16.30
68911;BMP180;55953;51.650;-0.522;2022-08-27T01:56:18;100945.60;;;16.30
68911;BMP180;55953;51.650;-0.522;2022-08-27T01:58:46;100944.20;;;16.30
68911;BMP180;55953;51.650;-0.522;2022-08-27T02:01:17;100943.80;;;16.30
68911;BMP180;55953;51.650;-0.522;2022-08-27T02:03:46;100948.80;;;16.22
68911;BMP180;55953;51.650;-0.522;2022-08-27T02:06:14;100942.60;;;16.40
68911;BMP180;55953;51.650;-0.522;2022-08-27T02:08:42;100942.00;;;16.40
68911;BMP180;55953;51.650;-0.522;2022-08-27T02:11:10;100941.60;;;16.42
68911;BMP180;55953;51.650;-0.522;2022-08-27T02:13:38;100944.00;;;16.40
68911;BMP180;55953;51.650;-0.522;2022-08-27T02:16:07;100943.80;;;16.40
68911;BMP180;55953;51.650;-0.522;2022-08-27T02:18:35;100945.00;;;16.50
68911;BMP180;55953;51.650;-0.522;2022-08-27T02:21:08;100941.60;;;16.50
68911;BMP180;55953;51.650;-0.522;2022-08-27T02:23:36;100945.60;;;16.56
68911;BMP180;55953;51.650;-0.522;2022-08-27T02:26:04;100945.40;;;16.60
68911;BMP180;55953;51.650;-0.522;2022-08-27T02:28:33;100943.20;;;16.70
68911;BMP180;55953;51.650;-0.522;2022-08-27T02:31:02;100946.20;;;16.70
68911;BMP180;55953;51.650;-0.522;2022-08-27T02:33:33;100947.20;;;16.74
68911;BMP180;55953;51.650;-0.522;2022-08-27T02:36:02;100947.00;;;16.80
68911;BMP180;55953;51.650;-0.522;2022-08-27T02:38:32;100944.00;;;16.80
68911;BMP180;55953;51.650;-0.522;2022-08-27T02:41:00;100945.00;;;16.80
68911;BMP180;55953;51.650;-0.522;2022-08-27T02:43:28;100943.60;;;16.70
68911;BMP180;55953;51.650;-0.522;2022-08-27T02:45:56;100940.60;;;16.80
68911;BMP180;55953;51.650;-0.522;2022-08-27T02:48:24;100938.00;;;16.74
68911;BMP180;55953;51.650;-0.522;2022-08-27T02:50:52;100938.40;;;16.70
68911;BMP180;55953;51.650;-0.522;2022-08-27T02:53:21;100940.60;;;16.60
68911;BMP180;55953;51.650;-0.522;2022-08-27T02:55:50;100942.20;;;16.60
68911;BMP180;55953;51.650;-0.522;2022-08-27T02:58:18;100939.80;;;16.50
68911;BMP180;55953;51.650;-0.522;2022-08-27T03:00:46;100942.80;;;16.40
68911;BMP180;55953;51.650;-0.522;2022-08-27T03:03:15;100942.20;;;16.40
68911;BMP180;55953;51.650;-0.522;2022-08-27T03:05:44;100943.20;;;16.40
68911;BMP180;55953;51.650;-0.522;2022-08-27T03:08:11;100947.00;;;16.32
68911;BMP180;55953;51.650;-0.522;2022-08-27T03:10:39;100950.40;;;16.30
68911;BMP180;55953;51.650;-0.522;2022-08-27T03:13:08;100949.40;;;16.30
68911;BMP180;55953;51.650;-0.522;2022-08-27T03:15:36;100952.20;;;16.28
68911;BMP180;55953;51.650;-0.522;2022-08-27T03:18:04;100947.60;;;16.30
68911;BMP180;55953;51.650;-0.522;2022-08-27T03:20:54;100947.20;;;16.20
68911;BMP180;55953;51.650;-0.522;2022-08-27T03:23:28;100944.80;;;16.20
68911;BMP180;55953;51.650;-0.522;2022-08-27T03:26:04;100945.40;;;16.18
68911;BMP180;55953;51.650;-0.522;2022-08-27T03:28:36;100942.00;;;16.10
68911;BMP180;55953;51.650;-0.522;2022-08-27T03:31:14;100947.60;;;16.20
68911;BMP180;55953;51.650;-0.522;2022-08-27T03:33:42;100942.80;;;16.10
68911;BMP180;55953;51.650;-0.522;2022-08-27T03:36:10;100946.00;;;16.20
68911;BMP180;55953;51.650;-0.522;2022-08-27T03:38:40;100940.60;;;16.10
68911;BMP180;55953;51.650;-0.522;2022-08-27T03:41:08;100944.40;;;16.00
68911;BMP180;55953;51.650;-0.522;2022-08-27T03:43:36;100940.40;;;16.00
68911;BMP180;55953;51.650;-0.522;2022-08-27T03:46:07;100938.80;;;16.00
68911;BMP180;55953;51.650;-0.522;2022-08-27T03:48:35;100935.20;;;15.90
68911;BMP180;55953;51.650;-0.522;2022-08-27T03:51:07;100938.00;;;15.90
68911;BMP180;55953;51.650;-0.522;2022-08-27T03:53:39;100934.40;;;15.80
68911;BMP180;55953;51.650;-0.522;2022-08-27T03:56:07;100932.20;;;15.70
68911;BMP180;55953;51.650;-0.522;2022-08-27T03:58:37;100933.80;;;15.70
68911;BMP180;55953;51.650;-0.522;2022-08-27T04:01:07;100936.00;;;15.70
68911;BMP180;55953;51.650;-0.522;2022-08-27T04:03:35;100938.00;;;15.70
68911;BMP180;55953;51.650;-0.522;2022-08-27T04:06:04;100942.80;;;15.60
68911;BMP180;55953;51.650;-0.522;2022-08-27T04:08:32;100946.20;;;15.50
68911;BMP180;55953;51.650;-0.522;2022-08-27T04:11:04;100947.80;;;15.50
68911;BMP180;55953;51.650;-0.522;2022-08-27T04:13:32;100947.20;;;15.50
68911;BMP180;55953;51.650;-0.522;2022-08-27T04:16:00;100945.20;;;15.50
68911;BMP180;55953;51.650;-0.522;2022-08-27T04:18:28;100943.40;;;15.40
68911;BMP180;55953;51.650;-0.522;2022-08-27T04:20:56;100944.40;;;15.40
68911;BMP180;55953;51.650;-0.522;2022-08-27T04:23:24;100951.20;;;15.40
68911;BMP180;55953;51.650;-0.522;2022-08-27T04:25:52;100947.60;;;15.40
68911;BMP180;55953;51.650;-0.522;2022-08-27T04:28:19;100947.80;;;15.40
68911;BMP180;55953;51.650;-0.522;2022-08-27T04:30:47;100943.40;;;15.40
68911;BMP180;55953;51.650;-0.522;2022-08-27T04:33:15;100947.80;;;15.32
68911;BMP180;55953;51.650;-0.522;2022-08-27T04:35:43;100951.40;;;15.40
68911;BMP180;55953;51.650;-0.522;2022-08-27T04:38:11;100945.00;;;15.40
68911;BMP180;55953;51.650;-0.522;2022-08-27T04:40:39;100942.60;;;15.40
68911;BMP180;55953;51.650;-0.522;2022-08-27T04:43:25;100948.60;;;15.30
68911;BMP180;55953;51.650;-0.522;2022-08-27T04:45:54;100944.40;;;15.30
68911;BMP180;55953;51.650;-0.522;2022-08-27T04:48:23;100946.80;;;15.30
68911;BMP180;55953;51.650;-0.522;2022-08-27T04:50:52;100949.80;;;15.40
68911;BMP180;55953;51.650;-0.522;2022-08-27T04:53:20;100954.40;;;15.30
68911;BMP180;55953;51.650;-0.522;2022-08-27T04:55:53;100949.40;;;15.20
68911;BMP180;55953;51.650;-0.522;2022-08-27T04:58:24;100952.00;;;15.10
68911;BMP180;55953;51.650;-0.522;2022-08-27T05:00:57;100947.20;;;15.10
68911;BMP180;55953;51.650;-0.522;2022-08-27T05:03:28;100948.80;;;15.10
68911;BMP180;55953;51.650;-0.522;2022-08-27T05:06:03;100950.80;;;15.10
68911;BMP180;55953;51.650;-0.522;2022-08-27T05:08:32;100942.00;;;15.00
68911;BMP180;55953;51.650;-0.522;2022-08-27T05:11:01;100948.20;;;15.00
68911;BMP180;55953;51.650;-0.522;2022-08-27T05:13:29;100949.00;;;15.08
68911;BMP180;55953;51.650;-0.522;2022-08-27T05:16:06;100951.20;;;15.00
68911;BMP180;55953;51.650;-0.522;2022-08-27T05:18:36;100952.80;;;15.08
68911;BMP180;55953;51.650;-0.522;2022-08-27T05:21:32;100951.40;;;15.00
68911;BMP180;55953;51.650;-0.522;2022-08-27T05:24:02;100954.00;;;14.90
68911;BMP180;55953;51.650;-0.522;2022-08-27T05:26:33;100958.20;;;14.90
68911;BMP180;55953;51.650;-0.522;2022-08-27T05:29:03;100959.20;;;14.84
68911;BMP180;55953;51.650;-0.522;2022-08-27T05:31:33;100957.80;;;14.90
68911;BMP180;55953;51.650;-0.522;2022-08-27T05:34:02;100952.20;;;14.90
68911;BMP180;55953;51.650;-0.522;2022-08-27T05:36:45;100953.20;;;14.90
68911;BMP180;55953;51.650;-0.522;2022-08-27T05:39:16;100956.20;;;14.90
68911;BMP180;55953;51.650;-0.522;2022-08-27T05:41:44;100956.80;;;15.00
68911;BMP180;55953;51.650;-0.522;2022-08-27T05:44:12;100961.60;;;15.04
68911;BMP180;55953;51.650;-0.522;2022-08-27T05:47:02;100961.40;;;15.10
68911;BMP180;55953;51.650;-0.522;2022-08-27T05:49:30;100962.00;;;15.20
68911;BMP180;55953;51.650;-0.522;2022-08-27T05:51:58;100968.00;;;15.20
68911;BMP180;55953;51.650;-0.522;2022-08-27T05:54:26;100969.00;;;15.20
68911;BMP180;55953;51.650;-0.522;2022-08-27T05:56:53;100974.60;;;15.28
68911;BMP180;55953;51.650;-0.522;2022-08-27T05:59:21;100969.80;;;15.30
68911;BMP180;55953;51.650;-0.522;2022-08-27T06:02:12;100978.40;;;15.30
68911;BMP180;55953;51.650;-0.522;2022-08-27T06:04:40;100974.00;;;15.30
68911;BMP180;55953;51.650;-0.522;2022-08-27T06:07:08;100976.20;;;15.40
68911;BMP180;55953;51.650;-0.522;2022-08-27T06:09:37;100976.80;;;15.50
68911;BMP180;55953;51.650;-0.522;2022-08-27T06:12:06;100978.00;;;15.60
68911;BMP180;55953;51.650;-0.522;2022-08-27T06:14:35;100972.80;;;15.60
68911;BMP180;55953;51.650;-0.522;2022-08-27T06:17:04;100973.00;;;15.70
68911;BMP180;55953;51.650;-0.522;2022-08-27T06:19:33;100973.80;;;15.70
68911;BMP180;55953;51.650;-0.522;2022-08-27T06:22:03;100979.60;;;15.80
68911;BMP180;55953;51.650;-0.522;2022-08-27T06:24:39;100976.60;;;15.90
68911;BMP180;55953;51.650;-0.522;2022-08-27T06:27:12;100976.60;;;15.90
68911;BMP180;55953;51.650;-0.522;2022-08-27T06:29:41;100979.20;;;16.00
68911;BMP180;55953;51.650;-0.522;2022-08-27T06:32:11;100980.00;;;16.00
68911;BMP180;55953;51.650;-0.522;2022-08-27T06:34:39;100980.80;;;16.00
68911;BMP180;55953;51.650;-0.522;2022-08-27T06:37:07;100980.20;;;16.10
68911;BMP180;55953;51.650;-0.522;2022-08-27T06:39:37;100982.80;;;16.10
68911;BMP180;55953;51.650;-0.522;2022-08-27T06:42:09;100987.00;;;16.20
68911;BMP180;55953;51.650;-0.522;2022-08-27T06:44:40;100985.20;;;16.30
68911;BMP180;55953;51.650;-0.522;2022-08-27T06:47:08;100987.40;;;16.40
68911;BMP180;55953;51.650;-0.522;2022-08-27T06:49:39;100988.20;;;16.60
68911;BMP180;55953;51.650;-0.522;2022-08-27T06:52:10;100989.80;;;16.70
68911;BMP180;55953;51.650;-0.522;2022-08-27T06:54:38;100992.20;;;16.80
68911;BMP180;55953;51.650;-0.522;2022-08-27T06:57:06;100989.60;;;16.84
68911;BMP180;55953;51.650;-0.522;2022-08-27T06:59:34;100992.00;;;16.90
68911;BMP180;55953;51.650;-0.522;2022-08-27T07:02:02;100989.80;;;17.00
68911;BMP180;55953;51.650;-0.522;2022-08-27T07:04:30;100993.80;;;17.00
68911;BMP180;55953;51.650;-0.522;2022-08-27T07:07:01;100996.00;;;17.00
68911;BMP180;55953;51.650;-0.522;2022-08-27T07:09:30;100998.80;;;17.02
68911;BMP180;55953;51.650;-0.522;2022-08-27T07:12:01;101001.40;;;17.12
68911;BMP180;55953;51.650;-0.522;2022-08-27T07:14:30;101002.40;;;17.20
68911;BMP180;55953;51.650;-0.522;2022-08-27T07:17:05;101000.40;;;17.20
68911;BMP180;55953;51.650;-0.522;2022-08-27T07:19:42;100999.00;;;17.20
68911;BMP180;55953;51.650;-0.522;2022-08-27T07:22:11;101003.60;;;17.40
68911;BMP180;55953;51.650;-0.522;2022-08-27T07:24:39;101002.80;;;17.50
68911;BMP180;55953;51.650;-0.522;2022-08-27T07:27:08;101003.20;;;17.50
68911;BMP180;55953;51.650;-0.522;2022-08-27T07:29:36;101005.00;;;17.50
68911;BMP180;55953;51.650;-0.522;2022-08-27T07:32:04;101008.60;;;17.60
68911;BMP180;55953;51.650;-0.522;2022-08-27T07:34:31;101012.00;;;17.60
68911;BMP180;55953;51.650;-0.522;2022-08-27T07:36:59;101012.60;;;17.80
68911;BMP180;55953;51.650;-0.522;2022-08-27T07:39:27;101016.60;;;17.90
68911;BMP180;55953;51.650;-0.522;2022-08-27T07:41:56;101022.80;;;17.90
68911;BMP180;55953;51.650;-0.522;2022-08-27T07:44:43;101021.60;;;18.00
68911;BMP180;55953;51.650;-0.522;2022-08-27T07:47:10;101022.40;;;18.00
68911;BMP180;55953;51.650;-0.522;2022-08-27T07:49:39;101022.00;;;18.10
68911;BMP180;55953;51.650;-0.522;2022-08-27T07:52:07;101024.40;;;18.20
68911;BMP180;55953;51.650;-0.522;2022-08-27T07:54:35;101022.60;;;18.30
68911;BMP180;55953;51.650;-0.522;2022-08-27T07:57:03;101020.00;;;18.40
68911;BMP180;55953;51.650;-0.522;2022-08-27T07:59:31;101025.80;;;18.50
68911;BMP180;55953;51.650;-0.522;2022-08-27T08:01:59;101022.40;;;18.58
68911;BMP180;55953;51.650;-0.522;2022-08-27T08:04:27;101024.80;;;18.70
68911;BMP180;55953;51.650;-0.522;2022-08-27T08:06:55;101021.40;;;18.74
68911;BMP180;55953;51.650;-0.522;2022-08-27T08:09:23;101024.00;;;18.80
68911;BMP180;55953;51.650;-0.522;2022-08-27T08:11:52;101029.00;;;18.86
68911;BMP180;55953;51.650;-0.522;2022-08-27T08:14:21;101030.60;;;18.90
68911;BMP180;55953;51.650;-0.522;2022-08-27T08:16:49;101028.60;;;19.00
68911;BMP180;55953;51.650;-0.522;2022-08-27T08:19:17;101025.60;;;19.10
68911;BMP180;55953;51.650;-0.522;2022-08-27T08:21:44;101031.60;;;19.12
68911;BMP180;55953;51.650;-0.522;2022-08-27T08:24:12;101034.20;;;19.20
68911;BMP180;55953;51.650;-0.522;2022-08-27T08:26:40;101031.80;;;19.30
68911;BMP180;55953;51.650;-0.522;2022-08-27T08:29:09;101030.60;;;19.40
68911;BMP180;55953;51.650;-0.522;2022-08-27T08:31:45;101033.60;;;19.60
68911;BMP180;55953;51.650;-0.522;2022-08-27T08:34:18;101031.80;;;19.80
68911;BMP180;55953;51.650;-0.522;2022-08-27T08:36:47;101033.00;;;19.80
68911;BMP180;55953;51.650;-0.522;2022-08-27T08:39:22;101026.00;;;19.90
68911;BMP180;55953;51.650;-0.522;2022-08-27T08:41:55;101026.60;;;19.90
68911;BMP180;55953;51.650;-0.522;2022-08-27T08:44:37;101031.60;;;20.00
68911;BMP180;55953;51.650;-0.522;2022-08-27T08:50:27;101028.80;;;20.20
68911;BMP180;55953;51.650;-0.522;2022-08-27T08:53:08;101027.80;;;20.20
68911;BMP180;55953;51.650;-0.522;2022-08-27T08:55:47;101033.00;;;20.10
68911;BMP180;55953;51.650;-0.522;2022-08-27T09:01:08;101032.80;;;20.20
68911;BMP180;55953;51.650;-0.522;2022-08-27T09:03:39;101035.80;;;20.30
68911;BMP180;55953;51.650;-0.522;2022-08-27T09:08:54;101040.60;;;20.50
68911;BMP180;55953;51.650;-0.522;2022-08-27T09:11:48;101041.20;;;20.60
68911;BMP180;55953;51.650;-0.522;2022-08-27T09:14:29;101040.00;;;20.62
68911;BMP180;55953;51.650;-0.522;2022-08-27T09:17:01;101040.40;;;20.66
68911;BMP180;55953;51.650;-0.522;2022-08-27T09:19:35;101041.60;;;20.70
68911;BMP180;55953;51.650;-0.522;2022-08-27T09:22:33;101041.40;;;20.80
68911;BMP180;55953;51.650;-0.522;2022-08-27T09:27:55;101046.60;;;20.90
68911;BMP180;55953;51.650;-0.522;2022-08-27T09:30:29;101041.80;;;20.94
68911;BMP180;55953;51.650;-0.522;2022-08-27T09:33:02;101046.00;;;20.90
68911;BMP180;55953;51.650;-0.522;2022-08-27T09:35:40;101048.60;;;21.00
68911;BMP180;55953;51.650;-0.522;2022-08-27T09:38:09;101050.40;;;21.10
68911;BMP180;55953;51.650;-0.522;2022-08-27T09:40:44;101046.40;;;21.10
68911;BMP180;55953;51.650;-0.522;2022-08-27T09:45:57;101041.00;;;21.10
68911;BMP180;55953;51.650;-0.522;2022-08-27T09:48:30;101038.20;;;21.10
68911;BMP180;55953;51.650;-0.522;2022-08-27T09:51:16;101037.40;;;21.20
68911;BMP180;55953;51.650;-0.522;2022-08-27T09:53:55;101038.40;;;21.20
68911;BMP180;55953;51.650;-0.522;2022-08-27T09:56:37;101037.40;;;21.16
68911;BMP180;55953;51.650;-0.522;2022-08-27T09:59:22;101034.20;;;21.12
68911;BMP180;55953;51.650;-0.522;2022-08-27T10:02:01;101036.60;;;21.20
68911;BMP180;55953;51.650;-0.522;2022-08-27T10:04:44;101037.00;;;21.30
68911;BMP180;55953;51.650;-0.522;2022-08-27T10:07:47;101034.20;;;21.30
68911;BMP180;55953;51.650;-0.522;2022-08-27T10:13:18;101026.20;;;21.44
68911;BMP180;55953;51.650;-0.522;2022-08-27T10:25:14;101030.80;;;21.70
68911;BMP180;55953;51.650;-0.522;2022-08-27T10:40:00;101024.80;;;22.48
68911;BMP180;55953;51.650;-0.522;2022-08-27T10:43:13;101019.20;;;22.60
68911;BMP180;55953;51.650;-0.522;2022-08-27T10:45:56;101017.20;;;22.80
68911;BMP180;55953;51.650;-0.522;2022-08-27T10:48:50;101018.00;;;23.00
68911;BMP180;55953;51.650;-0.522;2022-08-27T10:51:49;101019.60;;;23.20
68911;BMP180;55953;51.650;-0.522;2022-08-27T10:57:22;101011.40;;;23.52
68911;BMP180;55953;51.650;-0.522;2022-08-27T11:00:18;101017.40;;;23.50
68911;BMP180;55953;51.650;-0.522;2022-08-27T11:02:56;101018.20;;;23.50
68911;BMP180;55953;51.650;-0.522;2022-08-27T11:05:34;101020.80;;;23.50
68911;BMP180;55953;51.650;-0.522;2022-08-27T11:08:18;101011.40;;;23.60
68911;BMP180;55953;51.650;-0.522;2022-08-27T11:10:51;101009.80;;;23.80
68911;BMP180;55953;51.650;-0.522;2022-08-27T11:13:31;101008.60;;;23.90
68911;BMP180;55953;51.650;-0.522;2022-08-27T11:16:06;101008.40;;;24.00
68911;BMP180;55953;51.650;-0.522;2022-08-27T11:19:00;101004.40;;;24.20
68911;BMP180;55953;51.650;-0.522;2022-08-27T11:22:04;101011.00;;;24.40
68911;BMP180;55953;51.650;-0.522;2022-08-27T11:24:56;101006.00;;;24.52
68911;BMP180;55953;51.650;-0.522;2022-08-27T11:27:30;101006.80;;;24.60
68911;BMP180;55953;51.650;-0.522;2022-08-27T11:30:27;101006.60;;;24.70
68911;BMP180;55953;51.650;-0.522;2022-08-27T11:36:29;101001.40;;;24.48
68911;BMP180;55953;51.650;-0.522;2022-08-27T11:42:12;100996.00;;;24.52
68911;BMP180;55953;51.650;-0.522;2022-08-27T11:44:48;100991.40;;;24.50
68911;BMP180;55953;51.650;-0.522;2022-08-27T11:47:24;100989.40;;;24.60
68911;BMP180;55953;51.650;-0.522;2022-08-27T11:49:59;100992.00;;;24.40
68911;BMP180;55953;51.650;-0.522;2022-08-27T11:52:40;100997.20;;;24.26
68911;BMP180;55953;51.650;-0.522;2022-08-27T11:58:07;100997.80;;;23.60
68911;BMP180;55953;51.650;-0.522;2022-08-27T12:00:40;101000.80;;;23.40
68911;BMP180;55953;51.650;-0.522;2022-08-27T12:11:23;100994.20;;;23.52
68911;BMP180;55953;51.650;-0.522;2022-08-27T12:14:28;100994.60;;;24.00
68911;BMP180;55953;51.650;-0.522;2022-08-27T12:19:54;100989.60;;;24.90
68911;BMP180;55953;51.650;-0.522;2022-08-27T12:22:48;100997.80;;;25.04
68911;BMP180;55953;51.650;-0.522;2022-08-27T12:25:36;100991.80;;;25.00
68911;BMP180;55953;51.650;-0.522;2022-08-27T12:28:07;100988.20;;;25.30
68911;BMP180;55953;51.650;-0.522;2022-08-27T12:30:38;100988.40;;;25.60
68911;BMP180;55953;51.650;-0.522;2022-08-27T12:33:20;100987.00;;;25.60
68911;BMP180;55953;51.650;-0.522;2022-08-27T12:35:55;100990.20;;;25.60
68911;BMP180;55953;51.650;-0.522;2022-08-27T12:40:59;100993.40;;;25.30
68911;BMP180;55953;51.650;-0.522;2022-08-27T12:43:31;101001.80;;;25.10
68911;BMP180;55953;51.650;-0.522;2022-08-27T12:48:39;100998.20;;;25.00
68911;BMP180;55953;51.650;-0.522;2022-08-27T12:51:28;101005.80;;;25.10
68911;BMP180;55953;51.650;-0.522;2022-08-27T12:59:56;101009.00;;;24.90
68911;BMP180;55953;51.650;-0.522;2022-08-27T13:04:54;101007.00;;;24.50
68911;BMP180;55953;51.650;-0.522;2022-08-27T13:07:32;101010.80;;;24.42
68911;BMP180;55953;51.650;-0.522;2022-08-27T13:10:16;101007.40;;;24.38
68911;BMP180;55953;51.650;-0.522;2022-08-27T13:12:47;101007.20;;;24.30
68911;BMP180;55953;51.650;-0.522;2022-08-27T13:15:18;101006.80;;;24.10
68911;BMP180;55953;51.650;-0.522;2022-08-27T13:17:48;101002.00;;;24.20
68911;BMP180;55953;51.650;-0.522;2022-08-27T13:20:23;100998.20;;;24.30
68911;BMP180;55953;51.650;-0.522;2022-08-27T13:22:52;100994.20;;;24.50
68911;BMP180;55953;51.650;-0.522;2022-08-27T13:25:35;100994.80;;;24.62
68911;BMP180;55953;51.650;-0.522;2022-08-27T13:28:11;100990.40;;;24.80
68911;BMP180;55953;51.650;-0.522;2022-08-27T13:30:44;100984.20;;;24.84
68911;BMP180;55953;51.650;-0.522;2022-08-27T13:33:20;100985.20;;;24.90
68911;BMP180;55953;51.650;-0.522;2022-08-27T13:35:49;100982.80;;;24.80
68911;BMP180;55953;51.650;-0.522;2022-08-27T13:38:20;100980.80;;;24.74
68911;BMP180;55953;51.650;-0.522;2022-08-27T13:40:56;100980.80;;;24.86
68911;BMP180;55953;51.650;-0.522;2022-08-27T13:43:41;100978.00;;;25.00
68911;BMP180;55953;51.650;-0.522;2022-08-27T13:46:19;100978.80;;;25.10
68911;BMP180;55953;51.650;-0.522;2022-08-27T13:48:52;100978.00;;;25.20
68911;BMP180;55953;51.650;-0.522;2022-08-27T13:51:31;100971.20;;;25.20
68911;BMP180;55953;51.650;-0.522;2022-08-27T13:54:08;100972.00;;;25.20
68911;BMP180;55953;51.650;-0.522;2022-08-27T14:02:27;100958.60;;;25.22
68911;BMP180;55953;51.650;-0.522;2022-08-27T14:05:25;100958.20;;;25.30
68911;BMP180;55953;51.650;-0.522;2022-08-27T14:08:11;100966.20;;;25.26
68911;BMP180;55953;51.650;-0.522;2022-08-27T14:10:45;100955.00;;;25.20
68911;BMP180;55953;51.650;-0.522;2022-08-27T14:13:21;100961.00;;;25.34
68911;BMP180;55953;51.650;-0.522;2022-08-27T14:15:58;100961.20;;;25.40
68911;BMP180;55953;51.650;-0.522;2022-08-27T14:18:32;100961.00;;;25.40
68911;BMP180;55953;51.650;-0.522;2022-08-27T14:21:21;100964.40;;;25.40
68911;BMP180;55953;51.650;-0.522;2022-08-27T14:23:50;100967.20;;;25.20
68911;BMP180;55953;51.650;-0.522;2022-08-27T14:26:19;100968.80;;;25.00
68911;BMP180;55953;51.650;-0.522;2022-08-27T14:28:47;100971.00;;;24.70
68911;BMP180;55953;51.650;-0.522;2022-08-27T14:31:15;100972.60;;;24.68
68911;BMP180;55953;51.650;-0.522;2022-08-27T14:33:43;100975.60;;;24.70
68911;BMP180;55953;51.650;-0.522;2022-08-27T14:36:14;100973.40;;;24.70
68911;BMP180;55953;51.650;-0.522;2022-08-27T14:38:45;100970.20;;;24.80
68911;BMP180;55953;51.650;-0.522;2022-08-27T14:41:15;100968.60;;;24.90
68911;BMP180;55953;51.650;-0.522;2022-08-27T14:43:48;100965.20;;;24.90
68911;BMP180;55953;51.650;-0.522;2022-08-27T14:46:28;100969.40;;;25.00
68911;BMP180;55953;51.650;-0.522;2022-08-27T14:48:59;100970.80;;;25.20
68911;BMP180;55953;51.650;-0.522;2022-08-27T14:51:30;100962.00;;;25.26
68911;BMP180;55953;51.650;-0.522;2022-08-27T14:53:58;100963.60;;;25.30
68911;BMP180;55953;51.650;-0.522;2022-08-27T14:56:26;100962.80;;;25.26
68911;BMP180;55953;51.650;-0.522;2022-08-27T14:58:54;100967.20;;;25.12
68911;BMP180;55953;51.650;-0.522;2022-08-27T15:01:24;100967.60;;;25.30
68911;BMP180;55953;51.650;-0.522;2022-08-27T15:03:53;100966.80;;;25.20
68911;BMP180;55953;51.650;-0.522;2022-08-27T15:06:22;100963.00;;;25.10
68911;BMP180;55953;51.650;-0.522;2022-08-27T15:08:50;100965.40;;;25.00
68911;BMP180;55953;51.650;-0.522;2022-08-27T15:11:26;100968.40;;;24.90
68911;BMP180;55953;51.650;-0.522;2022-08-27T15:13:55;100967.00;;;24.80
68911;BMP180;55953;51.650;-0.522;2022-08-27T15:16:29;100967.80;;;24.80
68911;BMP180;55953;51.650;-0.522;2022-08-27T15:18:59;100967.20;;;24.90
68911;BMP180;55953;51.650;-0.522;2022-08-27T15:21:29;100961.00;;;25.14
68911;BMP180;55953;51.650;-0.522;2022-08-27T15:24:01;100962.20;;;25.40
68911;BMP180;55953;51.650;-0.522;2022-08-27T15:26:30;100960.00;;;25.70
68911;BMP180;55953;51.650;-0.522;2022-08-27T15:28:58;100961.00;;;25.86
68911;BMP180;55953;51.650;-0.522;2022-08-27T15:31:33;100957.60;;;26.00
68911;BMP180;55953;51.650;-0.522;2022-08-27T15:34:01;100968.60;;;25.90
68911;BMP180;55953;51.650;-0.522;2022-08-27T15:36:29;100969.00;;;25.90
68911;BMP180;55953;51.650;-0.522;2022-08-27T15:38:57;100968.00;;;25.70